Time;durP1;ratioP1;P1;durP2;ratioP2;P2;SDS_P1;SDS_P2;PMS_P1;PMS_P2;Temp;Humidity;BMP_temperature;BMP_pressure;BME280_temperature;BME280_humidity;BME280_pressure;Samples;Min_cycle;Max_cycle;Signal;HPM_P1;HPM_P2
2023/04/24 00:00:27;;;;;;;;;6.50;4.75;;;;;11.96;67.61;100310.38;4991683;28;45428;-61
2023/04/24 00:02:56;;;;;;;;;4.50;3.00;;;;;11.94;67.57;100309.56;4978946;28;45544;-61
2023/04/24 00:05:22;;;;;;;;;3.00;3.00;;;;;11.88;67.11;100299.13;4991570;28;45416;-60
2023/04/24 00:07:47;;;;;;;;;3.50;3.25;;;;;11.72;67.05;100274.88;4987883;28;45254;-61
2023/04/24 00:10:13;;;;;;;;;1.25;0.00;;;;;11.93;67.42;100317.66;4991037;28;45359;-61
2023/04/24 00:12:38;;;;;;;;;3.25;3.25;;;;;11.87;67.35;100305.41;4994585;28;45412;-61
2023/04/24 00:15:04;;;;;;;;;5.00;4.00;;;;;11.93;67.26;100310.53;4991184;28;45293;-60
2023/04/24 00:17:30;;;;;;;;;3.75;3.75;;;;;11.94;67.29;100319.41;4989884;28;45385;-60
2023/04/24 00:19:58;;;;;;;;;4.00;4.00;;;;;11.96;67.30;100331.78;5010871;28;45507;-60
2023/04/24 00:22:24;;;;;;;;;2.00;2.00;;;;;11.93;67.47;100333.72;4995712;28;45614;-61
2023/04/24 00:24:50;;;;;;;;;4.00;4.00;;;;;11.89;67.41;100329.41;5011394;28;45452;-61
2023/04/24 00:27:15;;;;;;;;;5.75;4.00;;;;;11.92;67.26;100343.53;5007002;28;53227;-61
2023/04/24 00:29:40;;;;;;;;;2.75;2.75;;;;;11.85;66.94;100328.69;5001328;28;45422;-60
2023/04/24 00:32:06;;;;;;;;;3.00;3.00;;;;;11.93;67.08;100347.97;4998960;28;47211;-61
2023/04/24 00:34:32;;;;;;;;;2.50;2.50;;;;;11.85;67.37;100340.25;4990090;28;45416;-60
2023/04/24 00:36:57;;;;;;;;;2.00;2.00;;;;;11.95;67.78;100353.25;4999417;28;45394;-61
2023/04/24 00:39:23;;;;;;;;;6.00;3.00;;;;;11.89;67.27;100350.81;5011299;28;45653;-60
2023/04/24 00:41:49;;;;;;;;;3.50;2.75;;;;;11.85;67.00;100353.63;5013916;28;45324;-61
2023/04/24 00:44:14;;;;;;;;;3.00;3.00;;;;;11.82;66.96;100350.22;5010504;28;45302;-60
2023/04/24 00:46:40;;;;;;;;;2.50;2.00;;;;;11.83;67.10;100358.16;5007088;28;45717;-61
2023/04/24 00:49:06;;;;;;;;;2.50;1.50;;;;;11.79;66.60;100343.16;5010622;28;46162;-60
2023/04/24 00:51:32;;;;;;;;;3.00;1.25;;;;;11.89;66.76;100366.84;5013729;28;45447;-61
2023/04/24 00:53:58;;;;;;;;;2.75;2.00;;;;;11.84;66.94;100362.59;5000685;28;45429;-60
2023/04/24 00:56:24;;;;;;;;;4.00;2.00;;;;;11.86;66.95;100365.16;4985296;28;46052;-61
2023/04/24 00:58:50;;;;;;;;;2.50;2.50;;;;;11.84;66.54;100373.28;4989605;28;47427;-60
2023/04/24 01:01:15;;;;;;;;;4.00;2.00;;;;;11.77;66.82;100362.91;4993616;28;45460;-61
2023/04/24 01:03:41;;;;;;;;;5.50;2.00;;;;;11.68;67.03;100364.19;4989146;28;45477;-60
2023/04/24 01:06:07;;;;;;;;;3.00;3.00;;;;;11.67;66.85;100368.66;4984786;28;45650;-60
2023/04/24 01:08:34;;;;;;;;;4.25;3.00;;;;;11.74;67.14;100381.75;5009995;28;45360;-60
2023/04/24 01:11:03;;;;;;;;;2.75;2.00;;;;;11.62;67.52;100373.31;5006631;28;45580;-60
2023/04/24 01:13:29;;;;;;;;;2.50;2.50;;;;;11.71;67.32;100377.44;5010128;28;45460;-60
2023/04/24 01:15:54;;;;;;;;;3.25;2.50;;;;;11.68;67.37;100370.41;5008766;28;45447;-61
2023/04/24 01:18:21;;;;;;;;;2.25;2.25;;;;;11.53;67.55;100351.44;5010564;28;46542;-60
2023/04/24 01:20:47;;;;;;;;;2.75;2.00;;;;;11.67;67.39;100379.34;5006444;28;45585;-60
2023/04/24 01:23:12;;;;;;;;;2.25;2.25;;;;;11.65;67.43;100372.34;5006119;28;45421;-60
2023/04/24 01:25:37;;;;;;;;;2.00;2.00;;;;;11.54;67.70;100356.72;5001432;28;45769;-61
2023/04/24 01:28:03;;;;;;;;;3.75;2.00;;;;;11.67;67.62;100375.81;5009226;28;45967;-61
2023/04/24 01:30:29;;;;;;;;;4.00;3.00;;;;;11.59;67.76;100364.56;4988275;28;45256;-60
2023/04/24 01:32:55;;;;;;;;;4.75;2.50;;;;;11.66;67.56;100368.69;5009209;28;45248;-60
2023/04/24 01:35:20;;;;;;;;;3.00;3.00;;;;;11.61;67.55;100368.94;5001617;28;45903;-60
2023/04/24 01:37:46;;;;;;;;;2.00;2.00;;;;;11.66;67.68;100374.94;5009162;28;45426;-60
2023/04/24 01:40:12;;;;;;;;;5.75;2.25;;;;;11.64;67.35;100374.16;5006262;28;45375;-61
2023/04/24 01:42:37;;;;;;;;;2.75;2.75;;;;;11.64;67.54;100383.94;5010774;28;45554;-61
2023/04/24 01:45:05;;;;;;;;;6.00;3.00;;;;;11.65;67.35;100391.06;5002365;28;45412;-60
2023/04/24 01:47:31;;;;;;;;;3.25;2.75;;;;;11.64;67.56;100394.66;5009951;28;45317;-60
2023/04/24 01:49:57;;;;;;;;;3.00;3.00;;;;;11.64;67.14;100395.53;5012553;28;45746;-61
2023/04/24 01:52:23;;;;;;;;;2.50;2.50;;;;;11.67;67.28;100392.69;5009920;28;45502;-60
2023/04/24 01:54:48;;;;;;;;;4.00;3.00;;;;;11.67;67.27;100399.88;4986976;28;45566;-61
2023/04/24 01:57:15;;;;;;;;;5.00;1.00;;;;;11.68;67.11;100399.81;4981839;28;46586;-60
2023/04/24 01:59:41;;;;;;;;;2.75;2.25;;;;;11.67;67.10;100397.19;4999649;28;45401;-61
2023/04/24 02:02:06;;;;;;;;;3.50;2.00;;;;;11.62;67.34;100388.50;4990365;28;47136;-60
2023/04/24 02:04:31;;;;;;;;;2.25;2.00;;;;;11.70;67.41;100409.56;4999905;28;45424;-61
2023/04/24 02:06:57;;;;;;;;;9.75;2.00;;;;;11.59;67.20;100377.94;5007853;28;46291;-61
2023/04/24 02:09:22;;;;;;;;;2.75;2.75;;;;;11.66;67.15;100403.47;5012725;28;45512;-61
2023/04/24 02:11:47;;;;;;;;;1.75;1.75;;;;;11.58;67.22;100392.25;5009710;28;45460;-60
2023/04/24 02:14:13;;;;;;;;;3.50;2.25;;;;;11.67;67.31;100406.06;5000918;28;45569;-60
2023/04/24 02:16:38;;;;;;;;;3.75;3.75;;;;;11.68;67.26;100406.97;4998922;28;45325;-60
2023/04/24 02:19:03;;;;;;;;;1.75;1.00;;;;;11.63;67.10;100406.28;5012159;28;45419;-60
2023/04/24 02:21:30;;;;;;;;;2.50;2.00;;;;;11.68;67.44;100417.66;4991994;28;45757;-61
2023/04/24 02:23:56;;;;;;;;;2.75;2.75;;;;;11.71;67.14;100413.97;4995431;28;45376;-60
2023/04/24 02:26:21;;;;;;;;;3.00;3.00;;;;;11.63;67.16;100401.81;5009569;28;46109;-60
2023/04/24 02:28:46;;;;;;;;;2.00;2.00;;;;;11.60;67.32;100404.59;5002315;28;45298;-60
2023/04/24 02:31:11;;;;;;;;;2.25;1.75;;;;;11.67;67.29;100419.44;4987672;28;45330;-60
2023/04/24 02:33:37;;;;;;;;;4.00;4.00;;;;;11.68;67.01;100415.00;5011794;28;51277;-60
2023/04/24 02:36:02;;;;;;;;;3.00;3.00;;;;;11.71;67.29;100417.53;5006993;28;46417;-58
2023/04/24 02:38:28;;;;;;;;;2.75;2.00;;;;;11.53;67.10;100395.09;5005486;28;45463;-58
2023/04/24 02:40:54;;;;;;;;;2.00;2.00;;;;;11.73;67.11;100430.81;4989811;28;45430;-58
2023/04/24 02:43:20;;;;;;;;;4.75;3.00;;;;;11.72;67.31;100429.09;4993976;28;45254;-58
2023/04/24 02:45:45;;;;;;;;;3.50;2.00;;;;;11.56;67.31;100408.34;4999068;28;45621;-58
2023/04/24 02:48:10;;;;;;;;;3.00;3.00;;;;;11.57;67.26;100407.41;5011965;28;45401;-58
2023/04/24 02:50:36;;;;;;;;;1.75;1.75;;;;;11.58;67.11;100410.97;5007227;28;45403;-58
2023/04/24 02:53:01;;;;;;;;;5.00;3.50;;;;;11.69;67.37;100432.75;4999992;28;45357;-58
2023/04/24 02:55:26;;;;;;;;;2.00;2.00;;;;;11.37;67.53;100402.03;5006855;28;45550;-58
2023/04/24 02:57:52;;;;;;;;;2.00;2.00;;;;;11.66;67.89;100443.56;5005323;28;45389;-58
2023/04/24 03:00:17;;;;;;;;;4.00;2.25;;;;;11.60;67.72;100433.16;4993829;28;50359;-58
2023/04/24 03:02:42;;;;;;;;;5.00;3.00;;;;;11.58;67.29;100425.19;5000129;28;45445;-58
2023/04/24 03:05:08;;;;;;;;;2.00;2.00;;;;;11.72;67.27;100445.13;5009402;28;45968;-58
2023/04/24 03:07:34;;;;;;;;;2.00;2.00;;;;;11.67;67.28;100446.19;4982348;28;45748;-58
2023/04/24 03:09:59;;;;;;;;;2.00;1.25;;;;;11.55;67.09;100424.44;5010489;28;45505;-58
2023/04/24 03:12:25;;;;;;;;;3.00;2.00;;;;;11.68;67.29;100444.41;4982614;28;45685;-58
2023/04/24 03:14:50;;;;;;;;;3.25;2.00;;;;;11.74;67.64;100452.13;5010073;28;45381;-58
2023/04/24 03:17:16;;;;;;;;;2.75;2.75;;;;;11.68;67.18;100452.41;4999646;28;45463;-58
2023/04/24 03:19:41;;;;;;;;;3.00;3.00;;;;;11.59;67.39;100436.75;5013427;28;45393;-60
2023/04/24 03:22:08;;;;;;;;;1.00;1.00;;;;;11.66;67.45;100446.25;5001740;28;45394;-60
2023/04/24 03:24:34;;;;;;;;;3.00;3.00;;;;;11.67;67.29;100453.34;4992759;28;46169;-60
2023/04/24 03:27:00;;;;;;;;;1.00;1.00;;;;;11.71;67.02;100452.28;5015057;28;45305;-60
2023/04/24 03:29:25;;;;;;;;;2.75;2.00;;;;;11.71;67.49;100460.31;4997234;28;45384;-60
2023/04/24 03:31:50;;;;;;;;;3.00;3.00;;;;;11.60;67.05;100444.69;4995863;28;45470;-58
2023/04/24 03:34:16;;;;;;;;;2.75;2.75;;;;;11.67;67.31;100454.19;5000540;28;45417;-58
2023/04/24 03:36:41;;;;;;;;;1.00;1.00;;;;;11.57;67.30;100442.16;4984363;28;45462;-58
2023/04/24 03:39:07;;;;;;;;;3.00;2.00;;;;;11.60;66.77;100449.19;5014394;28;45459;-58
2023/04/24 03:41:32;;;;;;;;;2.50;1.75;;;;;11.73;67.19;100455.78;5005885;28;45449;-58
2023/04/24 03:43:58;;;;;;;;;3.25;3.00;;;;;11.73;67.26;100460.22;5009095;28;46089;-60
2023/04/24 03:46:23;;;;;;;;;2.00;2.00;;;;;11.63;67.35;100446.41;4987232;28;45342;-60
2023/04/24 03:48:48;;;;;;;;;3.00;3.00;;;;;11.65;67.38;100449.88;5003586;28;45381;-60
2023/04/24 03:51:13;;;;;;;;;2.75;2.00;;;;;11.60;67.32;100439.34;5007956;28;45393;-60
2023/04/24 03:53:39;;;;;;;;;2.00;2.00;;;;;11.59;67.51;100440.28;5008599;28;53349;-60
2023/04/24 03:56:05;;;;;;;;;3.50;3.00;;;;;11.70;67.41;100458.56;5014530;28;45405;-61
2023/04/24 03:58:30;;;;;;;;;3.50;3.00;;;;;11.66;67.52;100462.28;5000901;28;45354;-60
2023/04/24 04:00:57;;;;;;;;;3.00;1.50;;;;;11.69;67.49;100472.84;4998052;28;45333;-60
2023/04/24 04:03:23;;;;;;;;;4.25;2.50;;;;;11.63;67.26;100478.47;5008657;28;46341;-61
2023/04/24 04:05:48;;;;;;;;;3.25;3.25;;;;;11.68;67.61;100488.03;4990263;28;45401;-61
2023/04/24 04:08:13;;;;;;;;;3.00;3.00;;;;;11.63;67.21;100475.81;5013711;28;45364;-60
2023/04/24 04:10:39;;;;;;;;;1.00;1.00;;;;;11.70;67.36;100497.81;4983919;28;45562;-60
2023/04/24 04:13:06;;;;;;;;;3.00;3.00;;;;;11.72;67.75;100503.97;4995794;28;45349;-60
2023/04/24 04:15:31;;;;;;;;;3.00;2.00;;;;;11.74;67.38;100499.41;5010133;28;45373;-60
2023/04/24 04:17:56;;;;;;;;;2.25;2.25;;;;;11.74;67.50;100494.06;4983184;28;45421;-60
2023/04/24 04:20:22;;;;;;;;;3.50;3.50;;;;;11.74;67.52;100499.41;5014337;28;45325;-60
2023/04/24 04:22:47;;;;;;;;;5.00;4.00;;;;;11.75;67.13;100498.50;5004688;28;46420;-60
2023/04/24 04:25:13;;;;;;;;;2.75;2.75;;;;;11.76;67.13;100505.56;4996499;28;45451;-61
2023/04/24 04:27:38;;;;;;;;;3.00;2.75;;;;;11.68;67.03;100488.03;5013446;28;45386;-61
2023/04/24 04:30:05;;;;;;;;;2.75;2.75;;;;;11.74;67.41;100502.94;4989988;28;45541;-60
2023/04/24 04:32:34;;;;;;;;;5.25;4.25;;;;;11.77;67.10;100510.84;5005792;28;46379;-60
2023/04/24 04:35:03;;;;;;;;;3.00;3.00;;;;;11.76;67.34;100513.59;5007583;28;45345;-60
2023/04/24 04:37:29;;;;;;;;;3.75;3.75;;;;;11.67;67.30;100493.44;4970502;28;45415;-60
2023/04/24 04:39:55;;;;;;;;;2.50;2.50;;;;;11.77;67.22;100518.88;5014089;28;46646;-60
2023/04/24 04:42:20;;;;;;;;;2.00;2.00;;;;;11.75;67.45;100517.22;5007581;28;46312;-60
2023/04/24 04:44:46;;;;;;;;;3.00;3.00;;;;;11.78;67.14;100525.97;5007341;28;45384;-61
2023/04/24 04:47:11;;;;;;;;;3.75;3.75;;;;;11.80;67.30;100528.59;5013527;28;45430;-60
2023/04/24 04:49:38;;;;;;;;;4.00;4.00;;;;;11.80;67.15;100536.59;5000973;28;45309;-60
2023/04/24 04:52:04;;;;;;;;;3.75;3.75;;;;;11.70;67.24;100516.53;5013144;28;45585;-60
2023/04/24 04:54:29;;;;;;;;;4.25;4.25;;;;;11.82;67.29;100542.75;4995991;28;45497;-60
2023/04/24 04:56:55;;;;;;;;;4.25;3.50;;;;;11.81;67.50;100544.56;4992204;28;45425;-60
2023/04/24 04:59:20;;;;;;;;;4.75;3.50;;;;;11.79;67.18;100538.38;4994343;28;45523;-60
2023/04/24 05:01:46;;;;;;;;;4.00;4.00;;;;;11.84;67.19;100552.47;5000148;28;46222;-60
2023/04/24 05:04:11;;;;;;;;;6.75;5.00;;;;;11.78;66.84;100535.81;5013341;28;45289;-61
2023/04/24 05:06:36;;;;;;;;;5.75;5.75;;;;;11.78;66.89;100547.38;5007685;28;45361;-60
2023/04/24 05:09:03;;;;;;;;;6.50;4.00;;;;;11.77;66.84;100545.63;5006594;28;45543;-61
2023/04/24 05:11:29;;;;;;;;;6.00;4.00;;;;;11.84;67.12;100564.97;5011931;28;46351;-60
2023/04/24 05:13:54;;;;;;;;;4.00;4.00;;;;;11.73;67.17;100548.47;4996005;28;45732;-60
2023/04/24 05:16:20;;;;;;;;;5.00;5.00;;;;;11.66;67.14;100543.38;5000244;28;45471;-60
2023/04/24 05:18:45;;;;;;;;;5.00;4.25;;;;;11.80;67.23;100571.38;5013129;28;45270;-60
2023/04/24 05:21:10;;;;;;;;;6.00;5.25;;;;;11.74;67.40;100577.81;4989694;28;46562;-61
2023/04/24 05:23:36;;;;;;;;;5.25;5.25;;;;;11.72;67.58;100579.69;5013265;28;45318;-60
2023/04/24 05:26:02;;;;;;;;;4.25;3.00;;;;;11.64;67.57;100574.66;5005768;28;45369;-60
2023/04/24 05:28:28;;;;;;;;;5.00;5.00;;;;;11.73;67.58;100596.59;4984578;28;45448;-61
2023/04/24 05:30:55;;;;;;;;;4.75;3.25;;;;;11.65;67.77;100584.41;4986424;28;45856;-60
2023/04/24 05:33:21;;;;;;;;;3.75;3.50;;;;;11.65;67.56;100583.56;5012564;28;45658;-60
2023/04/24 05:35:47;;;;;;;;;6.50;4.25;;;;;11.59;67.56;100589.13;5006625;28;45533;-60
2023/04/24 05:38:13;;;;;;;;;4.75;4.75;;;;;11.70;67.63;100613.66;5002310;28;45325;-61
2023/04/24 05:40:38;;;;;;;;;4.00;4.00;;;;;11.70;67.58;100610.13;5005489;28;46107;-61
2023/04/24 05:43:04;;;;;;;;;6.25;6.25;;;;;11.74;67.78;100614.41;5006739;28;45512;-61
2023/04/24 05:45:29;;;;;;;;;6.50;6.00;;;;;11.74;67.96;100620.59;5013265;28;45379;-60
2023/04/24 05:47:55;;;;;;;;;6.25;5.50;;;;;11.65;67.75;100604.94;4999655;28;45393;-61
2023/04/24 05:50:20;;;;;;;;;10.00;6.75;;;;;11.70;67.74;100619.00;4995536;28;46370;-60
2023/04/24 05:52:46;;;;;;;;;7.00;6.50;;;;;11.73;68.01;100640.28;5012455;28;45305;-61
2023/04/24 05:55:11;;;;;;;;;6.25;5.25;;;;;11.65;67.92;100623.66;5006280;28;45423;-60
2023/04/24 05:57:36;;;;;;;;;5.25;4.75;;;;;11.72;68.29;100634.97;5006228;28;45253;-61
2023/04/24 06:00:04;;;;;;;;;4.50;4.00;;;;;11.67;68.27;100637.81;5009436;28;45363;-60
2023/04/24 06:02:32;;;;;;;;;6.25;6.25;;;;;11.62;67.90;100626.44;4999457;28;45543;-60
2023/04/24 06:04:58;;;;;;;;;3.25;3.25;;;;;11.76;68.18;100653.53;5012109;28;45509;-60
2023/04/24 06:07:26;;;;;;;;;5.00;5.00;;;;;11.68;68.20;100640.44;5010044;28;45496;-60
2023/04/24 06:09:51;;;;;;;;;5.50;3.75;;;;;11.73;68.59;100650.97;4988363;28;46380;-66
2023/04/24 06:12:17;;;;;;;;;7.50;7.50;;;;;11.82;68.40;100674.66;5000139;28;45317;-66
2023/04/24 06:14:43;;;;;;;;;6.00;6.00;;;;;11.65;67.88;100647.72;4996610;28;45380;-66
2023/04/24 06:17:08;;;;;;;;;11.25;9.75;;;;;11.53;67.86;100619.66;4984259;28;45592;-66
2023/04/24 06:19:39;;;;;;;;;8.00;6.75;;;;;11.85;67.81;100679.03;4980358;28;48350;-67
2023/04/24 06:22:05;;;;;;;;;6.75;6.50;;;;;11.80;67.95;100663.16;4986808;28;46259;-60
2023/04/24 06:24:31;;;;;;;;;8.50;7.00;;;;;11.87;68.20;100686.06;5017930;28;45380;-60
2023/04/24 06:26:58;;;;;;;;;9.50;5.50;;;;;11.89;67.97;100682.47;4981735;28;45433;-60
2023/04/24 06:29:24;;;;;;;;;9.50;8.75;;;;;11.80;68.24;100667.66;5006198;28;45471;-60
2023/04/24 06:31:49;;;;;;;;;9.00;6.00;;;;;11.85;68.50;100687.06;4992384;28;45361;-60
2023/04/24 06:34:14;;;;;;;;;8.00;8.00;;;;;11.80;68.28;100670.31;4996451;28;45381;-60
2023/04/24 06:36:40;;;;;;;;;9.25;6.50;;;;;11.87;68.32;100686.06;5014134;28;45384;-60
2023/04/24 06:39:05;;;;;;;;;10.75;9.75;;;;;11.94;68.29;100694.75;4994504;28;45512;-60
2023/04/24 06:41:31;;;;;;;;;11.50;10.00;;;;;11.79;68.48;100674.78;5000889;28;46987;-60
2023/04/24 06:43:56;;;;;;;;;9.75;9.75;;;;;11.84;68.04;100679.97;4993957;28;45382;-60
2023/04/24 06:46:25;;;;;;;;;11.75;7.75;;;;;11.96;68.67;100700.03;4990840;28;45310;-60
2023/04/24 06:48:51;;;;;;;;;10.25;9.00;;;;;11.81;68.50;100683.63;4997126;28;46311;-60
2023/04/24 06:51:17;;;;;;;;;10.50;8.25;;;;;11.82;68.90;100685.38;4971200;28;45436;-61
2023/04/24 06:53:43;;;;;;;;;10.75;10.75;;;;;11.96;68.82;100705.38;4997204;28;45432;-61
2023/04/24 06:56:08;;;;;;;;;8.75;8.75;;;;;11.88;68.54;100697.66;5006523;28;45315;-60
2023/04/24 06:58:34;;;;;;;;;11.75;10.00;;;;;12.02;68.68;100722.06;5003926;28;45485;-60
2023/04/24 07:00:59;;;;;;;;;11.00;10.00;;;;;12.00;68.15;100701.69;4986119;28;45275;-60
2023/04/24 07:03:25;;;;;;;;;3.75;2.25;;;;;12.02;68.44;100694.47;4995248;28;45424;-61
2023/04/24 07:05:51;;;;;;;;;10.50;8.00;;;;;12.10;68.26;100708.41;4990186;28;45444;-60
2023/04/24 07:08:17;;;;;;;;;11.50;11.50;;;;;12.13;68.56;100705.63;5004619;28;45456;-60
2023/04/24 07:10:43;;;;;;;;;9.75;9.75;;;;;12.14;68.52;100710.03;5010791;28;45697;-60
2023/04/24 07:13:09;;;;;;;;;11.25;11.00;;;;;12.08;68.49;100696.00;5004495;28;45605;-61
2023/04/24 07:15:34;;;;;;;;;11.00;10.00;;;;;12.20;68.50;100715.13;5000405;28;45562;-61
2023/04/24 07:18:00;;;;;;;;;7.50;7.50;;;;;12.06;68.37;100688.03;4999415;28;45446;-61
2023/04/24 07:20:25;;;;;;;;;13.00;10.50;;;;;12.16;68.45;100708.19;4981799;28;45607;-60
2023/04/24 07:22:51;;;;;;;;;10.25;10.25;;;;;12.20;68.20;100715.13;4992841;28;45854;-60
2023/04/24 07:25:17;;;;;;;;;12.00;11.00;;;;;12.25;67.94;100709.63;4998580;28;45706;-60
2023/04/24 07:27:42;;;;;;;;;11.50;11.25;;;;;12.30;68.11;100712.97;4999258;28;45580;-60
2023/04/24 07:30:08;;;;;;;;;13.50;11.50;;;;;12.26;68.01;100705.13;4993039;28;45431;-60
2023/04/24 07:32:33;;;;;;;;;15.00;13.50;;;;;12.29;68.30;100708.53;4988597;28;45532;-60
2023/04/24 07:34:59;;;;;;;;;11.00;11.00;;;;;12.34;68.13;100713.72;4998631;28;45582;-61
2023/04/24 07:37:24;;;;;;;;;12.75;12.50;;;;;12.37;67.96;100727.84;5003313;28;45506;-60
2023/04/24 07:39:50;;;;;;;;;14.00;13.00;;;;;12.33;67.77;100717.31;4995670;28;45415;-60
2023/04/24 07:42:15;;;;;;;;;14.00;12.00;;;;;12.34;67.75;100727.09;4997892;28;45463;-60
2023/04/24 07:44:40;;;;;;;;;14.50;13.75;;;;;12.39;67.65;100727.78;4993723;28;50758;-60
2023/04/24 07:47:06;;;;;;;;;14.00;13.00;;;;;12.40;67.56;100730.41;4979827;28;45393;-60
2023/04/24 07:49:33;;;;;;;;;14.25;11.75;;;;;12.42;67.29;100735.69;4997265;28;45334;-60
2023/04/24 07:52:00;;;;;;;;;12.50;11.75;;;;;12.45;67.70;100735.59;4989213;28;45531;-61
2023/04/24 07:54:25;;;;;;;;;12.50;12.50;;;;;12.47;67.50;100735.53;5001880;28;45373;-61
2023/04/24 07:56:51;;;;;;;;;11.75;11.75;;;;;12.39;67.47;100731.31;4990274;28;46296;-61
2023/04/24 07:59:16;;;;;;;;;13.75;11.50;;;;;12.45;67.49;100735.59;4998657;28;45417;-61
2023/04/24 08:01:41;;;;;;;;;15.50;13.00;;;;;12.48;67.52;100737.25;4996806;28;45322;-61
2023/04/24 08:04:07;;;;;;;;;14.00;13.00;;;;;12.50;67.67;100744.28;5009059;28;45371;-60
2023/04/24 08:06:32;;;;;;;;;13.75;12.00;;;;;12.43;67.64;100740.13;5000702;28;45945;-60
2023/04/24 08:08:58;;;;;;;;;12.75;12.75;;;;;12.41;67.46;100736.63;4977899;28;45672;-61
2023/04/24 08:11:24;;;;;;;;;12.00;9.00;;;;;12.44;67.43;100741.00;4997192;28;45316;-61
2023/04/24 08:13:50;;;;;;;;;13.25;11.00;;;;;12.49;67.41;100749.72;5014509;28;45368;-60
2023/04/24 08:16:15;;;;;;;;;13.75;12.25;;;;;12.39;67.51;100747.38;5008128;28;46078;-60
2023/04/24 08:18:41;;;;;;;;;15.50;14.00;;;;;12.49;67.59;100774.66;5012261;28;45476;-60
2023/04/24 08:21:06;;;;;;;;;10.75;10.75;;;;;12.41;67.18;100755.34;5009817;28;45784;-61
2023/04/24 08:23:31;;;;;;;;;15.25;14.50;;;;;12.49;67.09;100771.13;4990818;28;45827;-61
2023/04/24 08:25:57;;;;;;;;;12.00;10.50;;;;;12.47;67.66;100768.50;4979830;28;47878;-61
2023/04/24 08:28:23;;;;;;;;;17.50;13.75;;;;;12.47;67.85;100752.44;5002054;28;45790;-60
2023/04/24 08:30:48;;;;;;;;;18.25;15.25;;;;;12.49;67.77;100752.38;4999197;28;45364;-60
2023/04/24 08:33:14;;;;;;;;;15.00;13.00;;;;;12.47;67.56;100741.75;5003029;28;46950;-61
2023/04/24 08:35:40;;;;;;;;;16.00;14.25;;;;;12.42;67.93;100731.22;4992483;28;46971;-60
2023/04/24 08:38:05;;;;;;;;;16.25;15.50;;;;;12.69;67.55;100760.47;5003464;28;45347;-61
2023/04/24 08:40:34;;;;;;;;;17.25;15.25;;;;;12.63;68.08;100749.16;5006514;28;45338;-60
2023/04/24 08:43:00;;;;;;;;;16.50;14.25;;;;;12.73;67.53;100762.13;4982896;28;45267;-60
2023/04/24 08:45:26;;;;;;;;;16.75;16.75;;;;;12.68;67.59;100748.03;4999969;28;46273;-60
2023/04/24 08:47:53;;;;;;;;;15.75;15.75;;;;;12.77;66.79;100753.00;5012117;28;45377;-60
2023/04/24 08:50:18;;;;;;;;;15.00;14.75;;;;;12.81;66.63;100758.22;5001014;28;45432;-61
2023/04/24 08:52:44;;;;;;;;;16.00;15.25;;;;;12.88;66.48;100765.06;4994989;28;45452;-61
2023/04/24 08:55:10;;;;;;;;;16.50;15.50;;;;;12.91;66.51;100771.19;4997387;28;46139;-61
2023/04/24 08:57:35;;;;;;;;;16.25;15.50;;;;;12.96;66.28;100770.97;4997478;28;45384;-61
2023/04/24 09:00:01;;;;;;;;;17.00;15.75;;;;;12.97;66.44;100760.22;4992296;28;45600;-60
2023/04/24 09:02:27;;;;;;;;;15.00;15.00;;;;;12.92;66.50;100747.94;4993806;28;45580;-61
2023/04/24 09:04:53;;;;;;;;;14.00;13.00;;;;;13.01;66.57;100768.13;5006878;28;46528;-60
2023/04/24 09:07:22;;;;;;;;;16.50;15.00;;;;;12.98;66.18;100764.63;4997156;28;45449;-60
2023/04/24 09:09:50;;;;;;;;;20.50;16.00;;;;;13.09;66.21;100768.66;5009306;28;45400;-61
2023/04/24 09:12:15;;;;;;;;;16.00;16.00;;;;;13.07;65.63;100765.19;5002327;28;45555;-61
2023/04/24 09:14:44;;;;;;;;;21.50;18.50;;;;;13.13;66.02;100775.63;5004715;28;46338;-61
2023/04/24 09:17:10;;;;;;;;;14.50;11.50;;;;;13.13;65.64;100775.63;4994033;28;45553;-61
2023/04/24 09:19:35;;;;;;;;;17.25;16.50;;;;;13.20;65.64;100778.91;4991760;28;45617;-61
2023/04/24 09:22:04;;;;;;;;;19.25;18.00;;;;;13.22;65.83;100783.28;5000702;28;45427;-61
2023/04/24 09:24:30;;;;;;;;;18.25;14.75;;;;;13.24;65.79;100783.22;5004285;28;45523;-60
2023/04/24 09:26:58;;;;;;;;;13.75;13.25;;;;;13.27;65.63;100793.81;5006925;28;45465;-60
2023/04/24 09:29:24;;;;;;;;;16.50;16.25;;;;;13.29;64.98;100792.81;4985518;28;45458;-60
2023/04/24 09:31:49;;;;;;;;;14.75;14.25;;;;;13.26;65.22;100789.38;5004695;28;45505;-61
2023/04/24 09:34:21;;;;;;;;;15.75;14.50;;;;;13.31;65.00;100800.78;5010562;28;45465;-61
2023/04/24 09:36:46;;;;;;;;;17.75;14.50;;;;;13.28;64.79;100790.19;4998784;28;45436;-61
2023/04/24 09:39:19;;;;;;;;;17.75;17.50;;;;;13.30;65.13;100789.19;4989150;28;46415;-60
2023/04/24 09:41:53;;;;;;;;;9.50;7.75;;;;;13.34;64.91;100789.97;5006473;28;45517;-60
2023/04/24 09:44:24;;;;;;;;;13.00;13.00;;;;;13.37;64.55;100791.66;5011215;28;45993;-61
2023/04/24 09:46:53;;;;;;;;;16.25;15.25;;;;;13.42;64.41;100797.69;4998370;28;45300;-61
2023/04/24 09:49:28;;;;;;;;;16.00;15.25;;;;;13.44;64.68;100799.34;5005713;28;45338;-60
2023/04/24 09:52:11;;;;;;;;;14.00;13.75;;;;;13.48;64.59;100794.72;4992997;28;45429;-61
2023/04/24 09:54:38;;;;;;;;;16.00;14.50;;;;;13.50;64.26;100803.59;5001800;28;45470;-61
2023/04/24 09:57:03;;;;;;;;;11.75;11.25;;;;;13.41;64.22;100783.38;4996298;28;45649;-60
2023/04/24 09:59:29;;;;;;;;;17.00;15.50;;;;;13.47;64.07;100793.84;4992258;28;45443;-60
2023/04/24 10:01:55;;;;;;;;;12.25;11.50;;;;;13.52;64.05;100805.25;5003289;28;45571;-61
2023/04/24 10:04:28;;;;;;;;;14.75;14.75;;;;;13.56;64.36;100805.13;5004722;28;46100;-61
2023/04/24 10:06:56;;;;;;;;;12.50;12.50;;;;;13.55;63.96;100804.25;4997111;28;45492;-60
2023/04/24 10:09:23;;;;;;;;;14.50;13.00;;;;;13.48;63.43;100786.69;4996994;28;45410;-60
2023/04/24 10:11:51;;;;;;;;;15.00;13.25;;;;;13.57;63.43;100797.00;5010685;28;45474;-60
2023/04/24 10:14:20;;;;;;;;;17.25;15.25;;;;;13.63;64.11;100798.53;4992605;28;46095;-60
2023/04/24 10:16:46;;;;;;;;;16.50;14.00;;;;;13.59;63.61;100784.41;5000839;28;45454;-60
2023/04/24 10:19:13;;;;;;;;;16.75;14.25;;;;;13.71;63.36;100805.34;5011109;28;45686;-60
2023/04/24 10:21:42;;;;;;;;;15.75;14.50;;;;;13.75;63.56;100813.22;4997082;28;45326;-60
2023/04/24 10:24:08;;;;;;;;;15.25;13.75;;;;;13.75;62.30;100797.13;4997175;28;45511;-60
2023/04/24 10:26:35;;;;;;;;;12.75;12.75;;;;;13.77;62.85;100801.50;4998110;28;45664;-60
2023/04/24 10:29:01;;;;;;;;;15.50;13.50;;;;;13.79;62.71;100790.69;4982604;28;45464;-60
2023/04/24 10:31:30;;;;;;;;;14.00;13.75;;;;;13.80;62.70;100789.75;4993519;28;45513;-60
2023/04/24 10:33:57;;;;;;;;;18.25;16.00;;;;;13.80;62.87;100792.41;5000977;28;46640;-60
2023/04/24 10:36:26;;;;;;;;;18.00;17.00;;;;;13.82;62.71;100791.44;5009207;28;45679;-60
2023/04/24 10:38:55;;;;;;;;;16.25;12.50;;;;;13.96;62.56;100806.03;5011890;28;45392;-61
2023/04/24 10:41:23;;;;;;;;;16.00;13.50;;;;;13.95;62.07;100807.84;5003179;28;45467;-67
2023/04/24 10:44:03;;;;;;;;;16.00;15.00;;;;;13.87;61.80;100773.31;4980746;28;47336;-66
2023/04/24 10:46:30;;;;;;;;;14.25;11.25;;;;;13.96;61.62;100796.16;4982927;28;45305;-66
2023/04/24 10:48:58;;;;;;;;;14.75;11.50;;;;;14.08;61.63;100803.66;4985610;28;45335;-66
2023/04/24 10:51:24;;;;;;;;;12.75;12.75;;;;;13.97;61.69;100780.94;4980608;28;45909;-66
2023/04/24 10:53:51;;;;;;;;;13.50;13.50;;;;;13.95;61.84;100780.13;4987882;28;47302;-65
2023/04/24 10:56:16;;;;;;;;;11.50;11.50;;;;;14.16;61.52;100811.34;4971897;28;45403;-59
2023/04/24 10:58:51;;;;;;;;;14.75;13.00;;;;;14.17;61.38;100810.41;4987202;28;45262;-60
2023/04/24 11:01:29;;;;;;;;;16.75;12.50;;;;;14.20;61.28;100807.59;5010187;28;45379;-60
2023/04/24 11:03:56;;;;;;;;;11.75;11.00;;;;;14.17;60.98;100793.44;5013660;28;45648;-59
2023/04/24 11:06:43;;;;;;;;;11.00;11.00;;;;;14.16;61.45;100784.50;5009591;28;45422;-59
2023/04/24 11:09:12;;;;;;;;;10.25;9.25;;;;;14.27;60.90;100806.34;4986236;28;45381;-60
2023/04/24 11:11:40;;;;;;;;;10.00;9.75;;;;;14.26;60.29;100793.00;5003461;28;46138;-60
2023/04/24 11:14:07;;;;;;;;;13.75;12.50;;;;;14.27;59.80;100779.50;4989709;28;46050;-59